createdAt,value
2018-12-17T00:00:33.034Z,21.80
2018-12-17T00:03:01.162Z,20.57
2018-12-17T00:05:30.562Z,20.30
2018-12-17T00:07:58.082Z,19.70
2018-12-17T00:10:25.433Z,21.00
2018-12-17T00:12:53.347Z,21.40
2018-12-17T00:15:21.297Z,20.97
2018-12-17T00:17:48.578Z,22.90
2018-12-17T00:20:15.933Z,21.83
2018-12-17T00:22:44.094Z,22.43
2018-12-17T00:25:12.010Z,23.40
2018-12-17T00:27:40.579Z,21.50
2018-12-17T00:30:08.623Z,21.17
2018-12-17T00:32:36.029Z,21.67
2018-12-17T00:35:04.490Z,21.43
2018-12-17T00:37:33.132Z,20.97
2018-12-17T00:40:01.180Z,22.33
2018-12-17T00:42:28.600Z,23.47
2018-12-17T00:44:55.903Z,21.57
2018-12-17T00:47:24.209Z,22.00
2018-12-17T00:49:52.224Z,22.37
2018-12-17T00:52:19.706Z,20.23
2018-12-17T00:54:53.819Z,21.70
2018-12-17T00:57:21.639Z,21.10
2018-12-17T00:59:49.578Z,20.60
2018-12-17T01:02:16.998Z,21.20
2018-12-17T01:04:44.752Z,21.90
2018-12-17T01:07:12.130Z,20.07
2018-12-17T01:09:40.125Z,19.67
2018-12-17T01:12:08.311Z,21.37
2018-12-17T01:14:36.052Z,20.37
2018-12-17T01:17:03.732Z,19.17
2018-12-17T01:19:31.071Z,19.67
2018-12-17T01:22:05.394Z,19.30
2018-12-17T01:24:32.711Z,20.83
2018-12-17T01:27:00.575Z,19.57
2018-12-17T01:29:27.948Z,19.30
2018-12-17T01:31:55.894Z,19.67
2018-12-17T01:34:24.619Z,19.60
2018-12-17T01:36:52.365Z,20.77
2018-12-17T01:39:20.139Z,20.70
2018-12-17T01:41:47.983Z,20.40
2018-12-17T01:44:15.944Z,19.83
2018-12-17T01:46:44.595Z,22.10
2018-12-17T01:49:12.583Z,21.57
2018-12-17T01:51:41.222Z,20.73
2018-12-17T01:54:08.633Z,21.77
2018-12-17T01:56:37.383Z,22.23
2018-12-17T01:59:06.313Z,21.67
2018-12-17T02:01:33.883Z,20.23
2018-12-17T02:04:01.187Z,21.30
2018-12-17T02:06:28.970Z,20.70
2018-12-17T02:08:57.471Z,20.47
2018-12-17T02:11:26.950Z,22.40
2018-12-17T02:13:54.541Z,22.73
2018-12-17T02:16:21.854Z,21.77
2018-12-17T02:18:49.614Z,22.40
2018-12-17T02:21:17.034Z,22.63
2018-12-17T02:23:44.304Z,22.93
2018-12-17T02:26:11.849Z,21.37
2018-12-17T02:28:40.398Z,20.60
2018-12-17T02:31:09.035Z,21.90
2018-12-17T02:33:36.788Z,21.17
2018-12-17T02:36:04.375Z,20.70
2018-12-17T02:38:32.047Z,21.70
2018-12-17T02:41:00.067Z,23.50
2018-12-17T02:43:29.215Z,21.20
2018-12-17T02:45:56.904Z,27.00
2018-12-17T02:48:24.278Z,23.57
2018-12-17T02:50:51.720Z,23.83
2018-12-17T02:53:19.174Z,24.00
2018-12-17T02:55:48.538Z,22.97
2018-12-17T02:58:16.268Z,24.63
2018-12-17T03:00:45.086Z,21.77
2018-12-17T03:03:13.303Z,21.13
2018-12-17T03:05:40.973Z,23.33
2018-12-17T03:08:08.635Z,23.57
2018-12-17T03:10:36.028Z,23.07
2018-12-17T03:13:04.991Z,22.80
2018-12-17T03:15:33.511Z,21.50
2018-12-17T03:18:01.391Z,22.60
2018-12-17T03:20:29.782Z,20.37
2018-12-17T03:22:59.139Z,22.40
2018-12-17T03:25:28.040Z,22.20
2018-12-17T03:27:56.366Z,21.97
2018-12-17T03:30:23.772Z,20.80
2018-12-17T03:32:51.551Z,21.00
2018-12-17T03:35:20.148Z,22.93
2018-12-17T03:37:48.042Z,22.40
2018-12-17T03:40:16.176Z,28.40
2018-12-17T03:42:43.832Z,23.60
2018-12-17T03:45:12.025Z,20.90
2018-12-17T03:47:39.430Z,23.23
2018-12-17T03:50:08.422Z,24.50
2018-12-17T03:52:36.255Z,21.73
2018-12-17T03:55:05.728Z,23.73
2018-12-17T03:57:33.132Z,22.50
2018-12-17T04:00:00.456Z,22.50
2018-12-17T04:02:28.389Z,23.77
2018-12-17T04:04:55.873Z,23.10
2018-12-17T04:07:23.216Z,22.10
2018-12-17T04:09:52.003Z,22.30
2018-12-17T04:12:20.453Z,22.30
2018-12-17T04:14:47.838Z,22.17
2018-12-17T04:17:15.252Z,21.97
2018-12-17T04:19:42.715Z,20.63
2018-12-17T04:22:10.179Z,23.53
2018-12-17T04:24:37.547Z,23.77
2018-12-17T04:27:05.299Z,21.67
2018-12-17T04:29:32.638Z,23.57
2018-12-17T04:32:00.553Z,22.20
2018-12-17T04:34:28.027Z,25.60
2018-12-17T04:36:55.772Z,21.13
2018-12-17T04:39:23.262Z,23.10
2018-12-17T04:41:51.607Z,27.50
2018-12-17T04:44:19.555Z,23.20
2018-12-17T04:46:46.916Z,22.27
2018-12-17T04:49:14.689Z,23.37
2018-12-17T04:51:42.367Z,22.90
2018-12-17T04:54:09.720Z,21.60
2018-12-17T04:56:37.539Z,22.97
2018-12-17T04:59:05.046Z,22.07
2018-12-17T05:01:32.556Z,20.70
2018-12-17T05:03:59.943Z,21.40
2018-12-17T05:06:27.371Z,21.30
2018-12-17T05:08:55.079Z,21.83
2018-12-17T05:11:23.018Z,21.50
2018-12-17T05:13:51.519Z,21.00
2018-12-17T05:16:18.864Z,19.27
2018-12-17T05:18:46.843Z,18.17
2018-12-17T05:21:15.022Z,17.37
2018-12-17T05:23:42.789Z,18.27
2018-12-17T05:26:10.443Z,17.10
2018-12-17T05:28:38.287Z,17.80
2018-12-17T05:31:05.665Z,17.30
2018-12-17T05:33:33.019Z,15.73
2018-12-17T05:36:01.132Z,15.43
2018-12-17T05:38:29.018Z,16.50
2018-12-17T05:40:56.890Z,15.60
2018-12-17T05:43:25.496Z,16.73
2018-12-17T05:45:53.279Z,16.13
2018-12-17T05:48:20.604Z,15.67
2018-12-17T05:50:47.978Z,16.00
2018-12-17T05:53:16.446Z,14.13
2018-12-17T05:55:44.338Z,17.77
2018-12-17T05:58:11.738Z,16.20
2018-12-17T06:00:39.498Z,17.17
2018-12-17T06:03:07.214Z,17.87
2018-12-17T06:05:34.575Z,17.53
2018-12-17T06:08:01.869Z,19.03
2018-12-17T06:10:29.800Z,17.80
2018-12-17T06:12:57.193Z,17.00
2018-12-17T06:15:24.971Z,17.17
2018-12-17T06:17:53.610Z,17.67
2018-12-17T06:20:21.011Z,20.40
2018-12-17T06:22:48.441Z,21.70
2018-12-17T06:25:16.262Z,22.30
2018-12-17T06:27:43.662Z,21.93
2018-12-17T06:30:11.631Z,21.93
2018-12-17T06:32:39.740Z,20.57
2018-12-17T06:35:07.179Z,20.33
2018-12-17T06:37:35.553Z,18.70
2018-12-17T06:40:10.024Z,18.43
2018-12-17T06:42:33.854Z,20.23
2018-12-17T06:45:01.196Z,21.03
2018-12-17T06:47:28.575Z,19.57
2018-12-17T06:49:56.114Z,18.93
2018-12-17T06:52:25.004Z,22.40
2018-12-17T06:54:54.948Z,22.70
2018-12-17T06:57:22.263Z,20.37
2018-12-17T06:59:49.852Z,19.23
2018-12-17T07:02:17.954Z,18.53
2018-12-17T07:04:45.391Z,21.13
2018-12-17T07:07:13.691Z,17.77
2018-12-17T07:09:41.219Z,18.27
2018-12-17T07:12:08.598Z,21.57
2018-12-17T07:14:36.612Z,21.10
2018-12-17T07:17:04.323Z,21.77
2018-12-17T07:19:31.708Z,23.07
2018-12-17T07:21:59.567Z,21.27
2018-12-17T07:24:27.004Z,23.60
2018-12-17T07:26:54.754Z,22.07
2018-12-17T07:29:22.214Z,21.63
2018-12-17T07:31:50.010Z,20.33
2018-12-17T07:34:18.663Z,20.53
2018-12-17T07:36:46.167Z,21.07
2018-12-17T07:39:13.784Z,19.57
2018-12-17T07:41:41.163Z,18.10
2018-12-17T07:44:09.107Z,19.97
2018-12-17T07:46:36.449Z,18.97
2018-12-17T07:49:04.116Z,17.60
2018-12-17T07:51:32.020Z,16.50
2018-12-17T07:53:59.914Z,17.70
2018-12-17T07:56:27.607Z,16.47
2018-12-17T07:58:55.582Z,16.47
2018-12-17T08:01:23.282Z,13.50
2018-12-17T08:03:50.611Z,13.20
2018-12-17T08:06:18.046Z,12.60
2018-12-17T08:08:45.446Z,11.80
2018-12-17T08:11:13.882Z,10.07
2018-12-17T08:13:42.760Z,12.13
2018-12-17T08:16:10.229Z,10.73
2018-12-17T08:18:37.583Z,11.53
2018-12-17T08:21:05.015Z,10.87
2018-12-17T08:23:33.073Z,11.30
2018-12-17T08:26:01.022Z,10.90
2018-12-17T08:28:30.251Z,9.80
2018-12-17T08:30:59.475Z,10.53
2018-12-17T08:33:26.858Z,12.20
2018-12-17T08:35:54.340Z,10.47
2018-12-17T08:38:22.660Z,11.40
2018-12-17T08:40:49.964Z,11.50
2018-12-17T08:43:18.753Z,11.07
2018-12-17T08:45:46.362Z,11.60
2018-12-17T08:48:14.862Z,11.53
2018-12-17T08:50:42.352Z,12.57
2018-12-17T08:53:10.757Z,11.30
2018-12-17T08:55:38.675Z,11.67
2018-12-17T08:58:06.239Z,11.33
2018-12-17T09:00:33.615Z,12.20
2018-12-17T09:03:01.013Z,9.97
2018-12-17T09:05:29.463Z,11.50
2018-12-17T09:07:56.803Z,10.97
2018-12-17T09:10:24.194Z,11.40
2018-12-17T09:12:52.210Z,10.63
2018-12-17T09:15:20.187Z,10.97
2018-12-17T09:17:47.975Z,10.77
2018-12-17T09:20:15.826Z,11.70
2018-12-17T09:22:43.579Z,11.53
2018-12-17T09:25:10.925Z,10.20
2018-12-17T09:27:38.826Z,10.63
2018-12-17T09:30:07.259Z,9.10
2018-12-17T09:32:35.082Z,7.73
2018-12-17T09:35:03.237Z,7.57
2018-12-17T09:37:31.167Z,8.10
2018-12-17T09:39:58.819Z,6.83
2018-12-17T09:42:27.613Z,6.20
2018-12-17T09:44:54.923Z,6.10
2018-12-17T09:47:23.207Z,6.37
2018-12-17T09:49:50.606Z,6.43
2018-12-17T09:52:18.611Z,7.00
2018-12-17T09:54:46.566Z,6.43
2018-12-17T09:57:14.222Z,6.57
2018-12-17T09:59:41.900Z,6.80
2018-12-17T10:02:10.635Z,7.37
2018-12-17T10:04:38.507Z,6.63
2018-12-17T10:07:05.824Z,5.77
2018-12-17T10:09:33.524Z,5.87
2018-12-17T10:12:01.554Z,6.13
2018-12-17T10:14:28.863Z,5.00
2018-12-17T10:16:57.350Z,5.20
2018-12-17T10:19:25.125Z,5.17
2018-12-17T10:21:52.942Z,5.37
2018-12-17T10:24:20.746Z,5.10
2018-12-17T10:26:48.611Z,5.40
2018-12-17T10:29:15.935Z,5.27
2018-12-17T10:31:43.798Z,4.17
2018-12-17T10:34:11.177Z,5.40
2018-12-17T10:36:38.796Z,4.87
2018-12-17T10:39:07.538Z,4.67
2018-12-17T10:41:35.775Z,4.67
2018-12-17T10:44:03.589Z,5.13
2018-12-17T10:46:31.002Z,4.50
2018-12-17T10:48:58.418Z,4.47
2018-12-17T10:51:25.728Z,4.97
2018-12-17T10:53:53.074Z,4.30
2018-12-17T10:56:20.741Z,4.60
2018-12-17T10:58:48.535Z,4.43
2018-12-17T11:01:22.730Z,4.90
2018-12-17T11:03:55.101Z,5.10
2018-12-17T11:06:22.606Z,4.73
2018-12-17T11:08:50.200Z,4.50
2018-12-17T11:11:18.251Z,4.00
2018-12-17T11:13:46.758Z,4.80
2018-12-17T11:16:14.983Z,4.40
2018-12-17T11:18:42.914Z,4.50
2018-12-17T11:21:10.582Z,4.37
2018-12-17T11:23:39.470Z,4.67
2018-12-17T11:26:06.899Z,5.03
2018-12-17T11:28:34.866Z,4.37
2018-12-17T11:31:02.580Z,4.80
2018-12-17T11:33:29.913Z,4.87
2018-12-17T11:35:57.292Z,4.60
2018-12-17T11:38:24.675Z,5.23
2018-12-17T11:40:52.632Z,5.50
2018-12-17T11:43:19.984Z,5.80
2018-12-17T11:45:48.987Z,5.57
2018-12-17T11:48:17.100Z,5.67
2018-12-17T11:50:45.002Z,5.40
2018-12-17T11:53:12.718Z,6.67
2018-12-17T11:55:40.543Z,6.27
2018-12-17T11:58:12.648Z,6.53
2018-12-17T12:00:44.421Z,5.67
2018-12-17T12:03:12.495Z,6.60
2018-12-17T12:05:40.410Z,5.80
2018-12-17T12:08:08.672Z,6.67
2018-12-17T12:10:36.094Z,6.20
2018-12-17T12:13:03.817Z,6.00
2018-12-17T12:15:31.975Z,5.70
2018-12-17T12:18:00.040Z,6.43
2018-12-17T12:20:27.702Z,6.00
2018-12-17T12:22:55.146Z,6.07
2018-12-17T12:25:22.937Z,6.47
2018-12-17T12:27:50.447Z,6.47
2018-12-17T12:30:18.410Z,8.13
2018-12-17T12:32:47.061Z,7.50
2018-12-17T12:35:15.956Z,6.63
2018-12-17T12:37:44.195Z,7.20
2018-12-17T12:40:11.676Z,6.03
2018-12-17T12:42:39.659Z,8.47
2018-12-17T12:45:07.599Z,6.90
2018-12-17T12:47:35.585Z,7.17
2018-12-17T12:50:04.141Z,7.23
2018-12-17T12:52:31.470Z,7.77
2018-12-17T12:54:58.966Z,7.50
2018-12-17T12:57:26.305Z,6.73
2018-12-17T12:59:54.042Z,7.10
2018-12-17T13:02:22.108Z,7.13
2018-12-17T13:04:50.641Z,7.43
2018-12-17T13:07:18.219Z,7.93
2018-12-17T13:09:45.919Z,9.17
2018-12-17T13:12:13.710Z,7.77
2018-12-17T13:14:41.871Z,8.10
2018-12-17T13:17:15.611Z,7.87
2018-12-17T13:19:43.652Z,7.83
2018-12-17T13:22:11.339Z,9.37
2018-12-17T13:24:38.902Z,8.03
2018-12-17T13:27:06.220Z,8.87
2018-12-17T13:29:33.530Z,9.10
2018-12-17T13:32:02.858Z,7.90
2018-12-17T13:34:31.033Z,10.13
2018-12-17T13:36:58.858Z,9.40
2018-12-17T13:39:27.082Z,8.03
2018-12-17T13:41:55.104Z,8.87
2018-12-17T13:44:23.089Z,8.50
2018-12-17T13:46:51.148Z,9.60
2018-12-17T13:49:18.847Z,9.43
2018-12-17T13:51:52.657Z,9.07
2018-12-17T13:54:20.069Z,7.87
2018-12-17T13:56:48.315Z,8.90
2018-12-17T13:59:15.692Z,8.60
2018-12-17T14:01:43.608Z,9.60
2018-12-17T14:04:11.931Z,8.73
2018-12-17T14:06:40.178Z,9.60
2018-12-17T14:09:08.899Z,8.03
2018-12-17T14:11:36.411Z,8.13
2018-12-17T14:14:03.922Z,9.07
2018-12-17T14:16:37.070Z,9.30
2018-12-17T14:19:10.096Z,9.60
2018-12-17T14:21:43.031Z,8.80
2018-12-17T14:24:10.436Z,8.80
2018-12-17T14:26:38.391Z,10.30
2018-12-17T14:29:05.866Z,9.30
2018-12-17T14:31:33.498Z,10.00
2018-12-17T14:34:00.815Z,10.07
2018-12-17T14:36:29.214Z,8.83
2018-12-17T14:38:56.873Z,9.47
2018-12-17T14:41:24.246Z,9.83
2018-12-17T14:43:53.647Z,10.30
2018-12-17T14:46:20.942Z,10.00
2018-12-17T14:48:48.947Z,10.13
2018-12-17T14:51:16.750Z,9.80
2018-12-17T14:53:44.634Z,10.10
2018-12-17T14:56:12.367Z,9.00
2018-12-17T14:58:44.504Z,9.37
2018-12-17T15:01:09.651Z,9.20
2018-12-17T15:03:37.051Z,8.70
2018-12-17T15:06:04.579Z,9.63
2018-12-17T15:08:32.195Z,9.53
2018-12-17T15:10:59.497Z,9.57
2018-12-17T15:13:30.329Z,9.73
2018-12-17T15:15:57.964Z,9.73
2018-12-17T15:18:26.114Z,10.10
2018-12-17T15:20:54.189Z,9.70
2018-12-17T15:23:22.214Z,9.80
2018-12-17T15:25:49.610Z,9.97
2018-12-17T15:28:17.528Z,9.63
2018-12-17T15:30:44.912Z,10.33
2018-12-17T15:33:12.499Z,10.03
2018-12-17T15:35:40.123Z,11.03
2018-12-17T15:38:08.341Z,9.67
2018-12-17T15:40:35.682Z,9.77
2018-12-17T15:43:04.287Z,10.17
2018-12-17T15:45:31.667Z,9.70
2018-12-17T15:47:59.358Z,9.40
2018-12-17T15:50:27.330Z,9.30
2018-12-17T15:52:55.195Z,9.77
2018-12-17T15:55:23.823Z,10.50
2018-12-17T15:57:51.412Z,9.80
2018-12-17T16:00:19.218Z,11.27
2018-12-17T16:02:47.390Z,9.10
2018-12-17T16:05:15.327Z,10.73
2018-12-17T16:07:42.850Z,9.83
2018-12-17T16:10:10.926Z,10.60
2018-12-17T16:12:38.654Z,10.80
2018-12-17T16:15:06.288Z,10.90
2018-12-17T16:17:34.211Z,12.70
2018-12-17T16:20:01.970Z,16.07
2018-12-17T16:22:31.262Z,12.80
2018-12-17T16:25:00.787Z,10.30
2018-12-17T16:27:28.732Z,9.73
2018-12-17T16:29:56.247Z,9.70
2018-12-17T16:32:23.929Z,10.23
2018-12-17T16:34:51.217Z,9.87
2018-12-17T16:37:19.065Z,9.57
2018-12-17T16:39:47.262Z,8.93
2018-12-17T16:42:14.694Z,8.27
2018-12-17T16:44:42.479Z,9.00
2018-12-17T16:47:10.358Z,8.20
2018-12-17T16:49:38.553Z,7.70
2018-12-17T16:52:06.178Z,6.80
2018-12-17T16:54:33.625Z,6.47
2018-12-17T16:57:00.914Z,7.13
2018-12-17T16:59:28.346Z,7.60
2018-12-17T17:01:55.836Z,6.57
2018-12-17T17:04:23.376Z,6.27
2018-12-17T17:06:51.299Z,7.03
2018-12-17T17:09:20.315Z,6.63
2018-12-17T17:11:49.179Z,6.00
2018-12-17T17:14:17.800Z,6.10
2018-12-17T17:16:46.417Z,6.53
2018-12-17T17:19:14.799Z,5.43
2018-12-17T17:21:42.834Z,7.10
2018-12-17T17:24:10.818Z,7.50
2018-12-17T17:26:38.255Z,6.70
2018-12-17T17:29:05.622Z,7.50
2018-12-17T17:31:32.934Z,7.23
2018-12-17T17:34:00.815Z,7.50
2018-12-17T17:36:28.705Z,6.73
2018-12-17T17:38:56.461Z,7.07
2018-12-17T17:41:24.055Z,7.73
2018-12-17T17:43:51.764Z,7.50
2018-12-17T17:46:19.604Z,7.80
2018-12-17T17:48:47.168Z,7.43
2018-12-17T17:51:14.935Z,7.00
2018-12-17T17:53:42.770Z,6.40
2018-12-17T17:56:10.112Z,8.07
2018-12-17T17:58:38.536Z,7.20
2018-12-17T18:01:06.551Z,7.90
2018-12-17T18:03:34.078Z,7.17
2018-12-17T18:06:01.779Z,7.20
2018-12-17T18:08:29.113Z,7.87
2018-12-17T18:10:56.808Z,7.47
2018-12-17T18:13:25.527Z,7.60
2018-12-17T18:15:53.310Z,7.60
2018-12-17T18:18:20.688Z,8.03
2018-12-17T18:20:48.051Z,7.97
2018-12-17T18:23:15.700Z,8.27
2018-12-17T18:25:43.326Z,7.97
2018-12-17T18:28:11.808Z,7.97
2018-12-17T18:30:39.604Z,8.77
2018-12-17T18:33:07.424Z,8.80
2018-12-17T18:35:35.387Z,7.93
2018-12-17T18:38:03.115Z,8.50
2018-12-17T18:40:32.555Z,8.20
2018-12-17T18:42:59.877Z,7.13
2018-12-17T18:45:27.232Z,8.33
2018-12-17T18:47:55.078Z,8.90
2018-12-17T18:50:22.949Z,8.90
2018-12-17T18:52:50.356Z,8.27
2018-12-17T18:55:18.183Z,8.23
2018-12-17T18:57:45.585Z,8.30
2018-12-17T19:00:13.529Z,7.97
2018-12-17T19:02:41.019Z,8.17
2018-12-17T19:05:09.458Z,8.90
2018-12-17T19:07:36.947Z,6.83
2018-12-17T19:10:05.543Z,7.10
2018-12-17T19:12:33.327Z,7.77
2018-12-17T19:15:00.890Z,7.63
2018-12-17T19:17:28.786Z,7.50
2018-12-17T19:19:58.351Z,7.37
2018-12-17T19:22:26.737Z,6.97
2018-12-17T19:24:54.134Z,7.43
2018-12-17T19:27:21.561Z,7.10
2018-12-17T19:29:49.739Z,8.03
2018-12-17T19:32:17.261Z,6.67
2018-12-17T19:34:44.764Z,7.23
2018-12-17T19:37:12.081Z,7.33
2018-12-17T19:39:39.853Z,8.27
2018-12-17T19:42:07.657Z,8.97
2018-12-17T19:44:35.103Z,8.80
2018-12-17T19:47:02.490Z,6.97
2018-12-17T19:49:31.881Z,7.67
2018-12-17T19:51:59.351Z,8.40
2018-12-17T19:54:27.327Z,7.00
2018-12-17T19:56:54.706Z,7.70
2018-12-17T19:59:22.618Z,7.50
2018-12-17T20:01:50.091Z,10.63
2018-12-17T20:04:17.940Z,10.10
2018-12-17T20:06:46.375Z,10.50
2018-12-17T20:09:14.545Z,11.77
2018-12-17T20:11:41.880Z,11.37
2018-12-17T20:14:09.228Z,11.30
2018-12-17T20:16:37.039Z,7.00
2018-12-17T20:19:05.346Z,8.10
2018-12-17T20:21:33.443Z,5.67
2018-12-17T20:24:01.057Z,6.07
2018-12-17T20:26:28.602Z,6.23
2018-12-17T20:28:57.946Z,7.27
2018-12-17T20:31:25.252Z,6.50
2018-12-17T20:33:53.709Z,6.90
2018-12-17T20:36:22.428Z,6.77
2018-12-17T20:38:51.228Z,6.20
2018-12-17T20:41:19.180Z,5.90
2018-12-17T20:43:46.609Z,6.60
2018-12-17T20:46:15.754Z,5.10
2018-12-17T20:48:43.256Z,5.73
2018-12-17T20:51:10.615Z,6.40
2018-12-17T20:53:38.255Z,18.27
2018-12-17T20:56:06.367Z,6.80
2018-12-17T20:58:33.954Z,5.70
2018-12-17T21:01:01.584Z,4.30
2018-12-17T21:03:29.364Z,4.60
2018-12-17T21:05:56.674Z,5.07
2018-12-17T21:08:24.523Z,5.17
2018-12-17T21:10:52.008Z,6.17
2018-12-17T21:13:19.398Z,5.93
2018-12-17T21:15:46.896Z,5.27
2018-12-17T21:18:14.751Z,5.30
2018-12-17T21:20:42.089Z,5.03
2018-12-17T21:23:10.678Z,5.20
2018-12-17T21:25:39.186Z,5.03
2018-12-17T21:28:06.488Z,4.73
2018-12-17T21:30:41.439Z,4.13
2018-12-17T21:33:09.569Z,4.43
2018-12-17T21:35:36.870Z,4.30
2018-12-17T21:38:04.204Z,4.67
2018-12-17T21:40:31.986Z,4.60
2018-12-17T21:42:59.811Z,4.60
2018-12-17T21:45:27.272Z,4.63
2018-12-17T21:47:54.866Z,4.30
2018-12-17T21:50:22.787Z,3.43
2018-12-17T21:52:50.102Z,3.83
2018-12-17T21:55:17.382Z,3.63
2018-12-17T21:57:44.709Z,3.40
2018-12-17T22:00:12.796Z,4.03
2018-12-17T22:02:41.524Z,4.50
2018-12-17T22:05:10.355Z,4.00
2018-12-17T22:07:37.947Z,4.50
2018-12-17T22:10:06.209Z,3.60
2018-12-17T22:12:33.480Z,4.00
2018-12-17T22:15:01.597Z,4.50
2018-12-17T22:17:29.555Z,6.03
2018-12-17T22:19:56.962Z,4.67
2018-12-17T22:22:25.051Z,4.53
2018-12-17T22:24:52.780Z,4.20
2018-12-17T22:27:20.360Z,3.83
2018-12-17T22:29:48.335Z,3.33
2018-12-17T22:32:15.683Z,3.43
2018-12-17T22:34:43.062Z,3.70
2018-12-17T22:37:10.952Z,4.20
2018-12-17T22:39:39.389Z,4.43
2018-12-17T22:42:06.856Z,4.80
2018-12-17T22:44:34.730Z,4.73
2018-12-17T22:47:02.227Z,4.57
2018-12-17T22:49:30.046Z,4.60
2018-12-17T22:51:57.510Z,5.30
2018-12-17T22:54:24.862Z,5.33
2018-12-17T22:56:52.124Z,6.10
2018-12-17T22:59:22.453Z,5.50
2018-12-17T23:01:49.870Z,5.43
2018-12-17T23:04:17.923Z,6.07
2018-12-17T23:06:45.972Z,5.90
2018-12-17T23:09:13.037Z,5.90
2018-12-17T23:11:58.231Z,6.17
2018-12-17T23:14:37.195Z,6.30
2018-12-17T23:17:16.547Z,5.63
2018-12-17T23:19:44.882Z,6.20
2018-12-17T23:22:13.054Z,6.63
2018-12-17T23:24:40.927Z,6.77
2018-12-17T23:27:08.574Z,6.80
2018-12-17T23:29:36.366Z,7.10
2018-12-17T23:32:04.419Z,8.00
2018-12-17T23:34:32.406Z,8.47
2018-12-17T23:37:00.890Z,7.50
2018-12-17T23:39:30.012Z,7.83
2018-12-17T23:41:57.859Z,7.83
2018-12-17T23:44:25.606Z,8.00
2018-12-17T23:46:54.889Z,8.20
2018-12-17T23:49:22.458Z,8.00
2018-12-17T23:51:50.031Z,7.30
2018-12-17T23:54:17.535Z,8.00
2018-12-17T23:56:45.745Z,10.43
2018-12-17T23:59:13.760Z,11.60
